createdAt,value
2023-03-02T00:01:40.288Z,4.98
2023-03-02T00:06:44.244Z,4.45
2023-03-02T00:11:48.327Z,4.08
2023-03-02T00:16:52.336Z,3.80
2023-03-02T00:21:56.488Z,4.61
2023-03-02T00:27:00.179Z,7.89
2023-03-02T00:32:07.117Z,8.53
2023-03-02T00:37:11.388Z,6.65
2023-03-02T00:42:15.074Z,5.57
2023-03-02T00:47:18.885Z,4.88
2023-03-02T00:52:22.750Z,4.40
2023-03-02T00:57:27.289Z,4.04
2023-03-02T01:02:32.673Z,4.91
2023-03-02T01:07:36.595Z,7.49
2023-03-02T01:12:40.984Z,8.93
2023-03-02T01:17:44.986Z,7.59
2023-03-02T01:22:48.832Z,6.02
2023-03-02T01:27:56.371Z,5.12
2023-03-02T01:33:00.113Z,4.52
2023-03-02T01:38:07.463Z,4.07
2023-03-02T01:43:17.053Z,3.73
2023-03-02T01:48:47.347Z,3.43
2023-03-02T01:54:01.466Z,3.18
2023-03-02T01:59:12.405Z,2.96
2023-03-02T02:12:46.649Z,7.93
2023-03-02T02:17:54.797Z,6.81
2023-03-02T02:23:49.247Z,5.20
2023-03-02T02:29:01.060Z,4.16
2023-03-02T02:34:23.055Z,3.49
2023-03-02T02:39:33.908Z,2.97
2023-03-02T02:44:37.949Z,2.57
2023-03-02T02:49:42.693Z,2.70
2023-03-02T02:54:51.622Z,4.36
2023-03-02T03:00:00.947Z,5.70
2023-03-02T03:05:05.705Z,6.32
2023-03-02T03:10:40.469Z,6.55
2023-03-02T03:15:44.501Z,5.08
2023-03-02T03:21:39.228Z,3.93
2023-03-02T03:26:43.870Z,3.06
2023-03-02T03:31:47.594Z,2.48
2023-03-02T03:37:41.602Z,2.79
2023-03-02T03:42:45.489Z,5.20
2023-03-02T03:47:49.330Z,6.57
2023-03-02T03:52:53.063Z,6.61
2023-03-02T03:58:22.571Z,4.89
2023-03-02T04:03:27.459Z,3.67
2023-03-02T04:08:31.271Z,2.94
2023-03-02T04:13:34.986Z,3.46
2023-03-02T04:18:38.809Z,5.54
2023-03-02T04:25:00.164Z,6.59
2023-03-02T04:30:05.345Z,5.53
2023-03-02T04:35:09.990Z,3.97
2023-03-02T04:40:15.802Z,3.09
2023-03-02T04:45:20.004Z,2.48
2023-03-02T04:50:24.216Z,2.08
2023-03-02T04:55:28.861Z,2.21
2023-03-02T05:00:34.656Z,3.18
2023-03-02T05:05:38.946Z,3.64
2023-03-02T05:10:42.852Z,3.80
2023-03-02T05:24:17.230Z,4.00
2023-03-02T05:29:21.534Z,4.02
2023-03-02T05:35:16.768Z,4.14
2023-03-02T06:01:33.026Z,4.27
2023-03-02T06:06:37.552Z,4.37
2023-03-02T06:18:49.842Z,4.65
2023-03-02T06:24:44.535Z,4.65
2023-03-02T06:29:48.517Z,4.52
2023-03-02T06:34:52.466Z,4.54
2023-03-02T06:39:58.255Z,4.61
2023-03-02T06:45:02.519Z,4.75
2023-03-02T06:50:07.565Z,4.84
2023-03-02T06:55:33.296Z,4.88
2023-03-02T07:01:54.964Z,5.02
2023-03-02T07:06:59.010Z,5.16
2023-03-02T07:18:56.230Z,4.82
2023-03-02T07:24:50.474Z,4.76
2023-03-02T07:30:21.584Z,4.86
2023-03-02T07:35:26.072Z,4.82
2023-03-02T07:40:55.261Z,4.83
2023-03-02T07:52:48.385Z,4.83
2023-03-02T07:57:52.543Z,4.89
2023-03-02T08:02:56.380Z,4.88
2023-03-02T08:08:00.196Z,4.83
2023-03-02T08:20:12.930Z,4.97
2023-03-02T08:25:17.099Z,4.97
2023-03-02T08:30:21.131Z,4.79
2023-03-02T08:35:26.756Z,4.82
2023-03-02T08:40:56.420Z,5.01
2023-03-02T08:47:23.070Z,5.20
2023-03-02T08:52:27.284Z,5.36
2023-03-02T08:57:48.090Z,5.49
2023-03-02T09:03:42.599Z,5.69
2023-03-02T09:16:20.689Z,6.03
2023-03-02T09:30:00.175Z,6.09
2023-03-02T09:35:55.571Z,7.31
2023-03-02T09:41:21.481Z,7.76
2023-03-02T09:53:44.906Z,7.53
2023-03-02T09:59:31.769Z,8.07
2023-03-02T10:12:26.476Z,9.57
2023-03-02T10:18:11.725Z,9.46
2023-03-02T10:23:35.366Z,9.49
2023-03-02T10:28:49.809Z,9.42
2023-03-02T10:34:28.390Z,9.63
2023-03-02T10:39:34.402Z,10.03
2023-03-02T10:44:46.229Z,10.42
2023-03-02T10:50:53.798Z,10.51
2023-03-02T11:14:38.972Z,10.50
2023-03-02T11:19:44.457Z,10.64
2023-03-02T11:24:58.971Z,10.82
2023-03-02T11:30:23.494Z,11.02
2023-03-02T11:35:44.461Z,11.12
2023-03-02T11:40:53.452Z,11.18
2023-03-02T11:49:19.537Z,11.66
2023-03-02T11:54:46.595Z,11.84
2023-03-02T11:59:52.881Z,11.78
2023-03-02T12:05:25.230Z,11.85
2023-03-02T12:10:44.012Z,11.89
2023-03-02T12:15:51.295Z,11.90
2023-03-02T12:21:39.543Z,11.96
2023-03-02T12:26:43.335Z,11.93
2023-03-02T12:31:56.077Z,12.05
2023-03-02T12:37:08.026Z,11.87
2023-03-02T12:42:44.280Z,11.75
2023-03-02T12:48:02.273Z,11.51
2023-03-02T12:53:17.798Z,11.89
2023-03-02T12:58:28.782Z,12.97
2023-03-02T13:03:32.705Z,14.40
2023-03-02T13:08:38.606Z,15.62
2023-03-02T13:13:45.670Z,16.98
2023-03-02T13:18:57.499Z,18.68
2023-03-02T13:24:02.951Z,19.61
2023-03-02T13:29:15.138Z,20.59
2023-03-02T13:34:33.516Z,20.88
2023-03-02T13:39:37.755Z,21.21
2023-03-02T13:44:41.668Z,22.12
2023-03-02T13:49:46.058Z,23.09
2023-03-02T13:54:50.194Z,21.65
2023-03-02T13:59:55.397Z,19.73
2023-03-02T14:04:59.408Z,19.92
2023-03-02T14:10:04.806Z,21.09
2023-03-02T14:15:15.680Z,21.81
2023-03-02T14:20:21.220Z,21.78
2023-03-02T14:25:25.181Z,21.22
2023-03-02T14:30:29.494Z,21.25
2023-03-02T14:35:33.758Z,20.26
2023-03-02T14:40:38.514Z,19.96
2023-03-02T14:45:42.438Z,20.87
2023-03-02T14:50:50.878Z,21.33
2023-03-02T14:55:55.321Z,20.96
2023-03-02T15:01:00.357Z,20.94
2023-03-02T15:06:08.052Z,20.75
2023-03-02T15:11:12.910Z,20.17
2023-03-02T15:16:17.934Z,19.61
2023-03-02T15:21:25.266Z,19.33
2023-03-02T15:26:29.697Z,18.19
2023-03-02T15:31:35.329Z,15.97
2023-03-02T15:36:41.783Z,13.92
2023-03-02T15:41:47.992Z,12.32
2023-03-02T15:46:58.946Z,11.12
2023-03-02T15:52:03.201Z,10.18
2023-03-02T15:57:11.625Z,9.45
2023-03-02T16:02:17.836Z,8.77
2023-03-02T16:07:21.637Z,8.22
2023-03-02T16:12:28.046Z,7.77
2023-03-02T16:17:33.530Z,7.37
2023-03-02T16:22:39.469Z,7.01
2023-03-02T16:27:48.649Z,6.70
2023-03-02T16:32:52.751Z,6.42
2023-03-02T16:37:56.700Z,6.13
2023-03-02T16:43:00.724Z,5.85
2023-03-02T16:48:06.564Z,5.62
2023-03-02T16:53:10.506Z,5.43
2023-03-02T16:58:14.774Z,5.23
2023-03-02T17:03:19.118Z,5.03
2023-03-02T17:08:23.016Z,4.86
2023-03-02T17:13:27.452Z,4.65
2023-03-02T17:18:35.449Z,4.37
2023-03-02T17:23:42.494Z,4.07
2023-03-02T17:28:46.847Z,3.76
2023-03-02T17:33:51.577Z,3.47
2023-03-02T17:38:55.298Z,3.24
2023-03-02T17:44:03.636Z,3.02
2023-03-02T17:49:07.378Z,3.23
2023-03-02T17:54:11.472Z,4.37
2023-03-02T17:59:16.263Z,5.12
2023-03-02T18:04:20.683Z,5.37
2023-03-02T18:09:24.687Z,5.31
2023-03-02T18:14:32.060Z,5.33
2023-03-02T18:19:37.849Z,5.40
2023-03-02T18:24:42.680Z,5.44
2023-03-02T18:29:46.891Z,5.47
2023-03-02T18:34:51.055Z,5.49
2023-03-02T18:39:56.464Z,5.50
2023-03-02T18:45:01.220Z,5.51
2023-03-02T18:50:06.022Z,5.46
2023-03-02T18:55:12.477Z,5.39
2023-03-02T19:00:27.369Z,5.28
2023-03-02T19:05:31.896Z,5.11
2023-03-02T19:10:39.047Z,4.85
2023-03-02T19:15:44.368Z,4.61
2023-03-02T19:20:51.564Z,4.46
2023-03-02T19:25:57.034Z,4.58
2023-03-02T19:31:09.698Z,4.87
2023-03-02T19:36:14.609Z,5.09
2023-03-02T19:41:21.529Z,5.03
2023-03-02T19:46:27.486Z,4.68
2023-03-02T19:51:33.100Z,4.41
2023-03-02T19:56:40.651Z,4.36
2023-03-02T20:01:44.990Z,5.05
2023-03-02T20:06:49.826Z,4.96
2023-03-02T20:11:54.673Z,4.95
2023-03-02T20:16:58.850Z,5.05
2023-03-02T20:22:04.072Z,4.89
2023-03-02T20:27:09.091Z,4.74
2023-03-02T20:32:14.888Z,4.70
2023-03-02T20:37:18.995Z,4.74
2023-03-02T20:42:25.490Z,4.80
2023-03-02T20:47:30.755Z,4.80
2023-03-02T20:52:35.333Z,4.81
2023-03-02T20:57:39.693Z,4.84
2023-03-02T21:02:46.147Z,4.84
2023-03-02T21:07:52.939Z,4.81
2023-03-02T21:12:56.784Z,4.69
2023-03-02T21:18:03.805Z,4.51
2023-03-02T21:23:11.491Z,4.42
2023-03-02T21:28:15.518Z,4.22
2023-03-02T21:33:19.455Z,3.90
2023-03-02T21:38:23.614Z,3.59
2023-03-02T21:43:27.637Z,3.47
2023-03-02T21:48:32.404Z,3.40
2023-03-02T21:53:38.971Z,3.48
2023-03-02T21:58:43.186Z,3.60
2023-03-02T22:03:47.108Z,3.66
2023-03-02T22:08:51.963Z,3.72
2023-03-02T22:14:00.948Z,3.78
2023-03-02T22:19:27.332Z,3.85
2023-03-02T22:24:34.106Z,3.63
2023-03-02T22:29:48.122Z,3.46
2023-03-02T22:34:56.306Z,3.40
2023-03-02T22:40:27.817Z,3.37
2023-03-02T22:45:31.951Z,3.35
2023-03-02T22:50:37.423Z,3.31
2023-03-02T22:55:43.690Z,3.15
2023-03-02T23:00:48.958Z,3.07
2023-03-02T23:05:53.597Z,3.07
2023-03-02T23:10:59.735Z,3.07
2023-03-02T23:16:26.248Z,2.90
2023-03-02T23:21:42.236Z,2.85
2023-03-02T23:26:46.182Z,2.80
2023-03-02T23:31:50.819Z,2.67
2023-03-02T23:36:54.556Z,2.55
2023-03-02T23:41:58.444Z,3.04
2023-03-02T23:47:02.411Z,3.41
2023-03-02T23:52:06.349Z,3.60
2023-03-02T23:57:10.368Z,4.14
